createdAt,value
2018-10-16T00:01:49.412Z,96.90
2018-10-16T00:04:18.364Z,97.00
2018-10-16T00:06:47.116Z,97.10
2018-10-16T00:09:15.916Z,97.10
2018-10-16T00:11:55.803Z,97.20
2018-10-16T00:14:24.715Z,97.30
2018-10-16T00:16:53.494Z,97.30
2018-10-16T00:19:22.429Z,97.40
2018-10-16T00:21:51.259Z,97.40
2018-10-16T00:24:20.171Z,97.60
2018-10-16T00:26:49.076Z,97.70
2018-10-16T00:29:17.946Z,98.00
2018-10-16T00:31:46.761Z,98.00
2018-10-16T00:34:15.507Z,97.90
2018-10-16T00:36:44.354Z,97.80
2018-10-16T00:39:15.311Z,97.70
2018-10-16T00:41:44.270Z,97.70
2018-10-16T00:44:13.473Z,97.70
2018-10-16T00:46:42.201Z,97.80
2018-10-16T00:49:11.183Z,97.90
2018-10-16T00:51:40.693Z,97.90
2018-10-16T00:54:09.885Z,98.00
2018-10-16T00:56:38.852Z,98.10
2018-10-16T00:59:08.888Z,98.20
2018-10-16T01:01:37.801Z,98.20
2018-10-16T01:04:07.702Z,98.30
2018-10-16T01:06:37.201Z,98.50
2018-10-16T01:09:13.304Z,98.60
2018-10-16T01:11:42.069Z,98.70
2018-10-16T01:14:11.888Z,98.80
2018-10-16T01:16:40.732Z,98.80
2018-10-16T01:19:09.592Z,98.90
2018-10-16T01:21:39.340Z,98.90
2018-10-16T01:24:08.241Z,98.90
2018-10-16T01:26:36.960Z,98.90
2018-10-16T01:29:06.525Z,98.80
2018-10-16T01:31:35.443Z,98.80
2018-10-16T01:34:04.421Z,98.90
2018-10-16T01:36:33.255Z,99.20
2018-10-16T01:39:02.401Z,99.20
2018-10-16T01:41:31.200Z,99.40
2018-10-16T01:44:00.953Z,99.40
2018-10-16T01:46:29.878Z,99.50
2018-10-16T01:48:58.789Z,99.60
2018-10-16T01:51:27.502Z,99.70
2018-10-16T01:53:56.650Z,99.80
2018-10-16T01:56:25.604Z,99.90
2018-10-16T01:59:01.122Z,99.90
2018-10-16T02:01:29.906Z,99.90
2018-10-16T02:03:58.648Z,99.90
2018-10-16T02:06:28.516Z,99.90
2018-10-16T02:08:57.514Z,99.90
2018-10-16T02:11:26.422Z,99.90
2018-10-16T02:13:55.318Z,99.90
2018-10-16T02:16:24.307Z,99.90
2018-10-16T02:18:53.167Z,99.90
2018-10-16T02:21:22.159Z,99.90
2018-10-16T02:23:50.982Z,99.90
2018-10-16T02:26:20.372Z,99.90
2018-10-16T02:28:49.122Z,99.90
2018-10-16T02:31:18.345Z,99.90
2018-10-16T02:33:46.955Z,99.90
2018-10-16T02:36:16.192Z,99.90
2018-10-16T02:38:45.101Z,99.90
2018-10-16T02:41:14.173Z,99.90
2018-10-16T02:43:42.947Z,99.90
2018-10-16T02:46:12.065Z,99.90
2018-10-16T02:48:41.068Z,99.90
2018-10-16T02:51:09.880Z,99.90
2018-10-16T02:53:38.835Z,99.90
2018-10-16T02:56:09.609Z,99.90
2018-10-16T02:58:40.669Z,99.90
2018-10-16T03:01:11.388Z,99.90
2018-10-16T03:03:40.476Z,99.90
2018-10-16T03:06:09.253Z,99.90
2018-10-16T03:08:39.764Z,99.90
2018-10-16T03:11:08.566Z,99.90
2018-10-16T03:13:37.842Z,99.90
2018-10-16T03:16:06.971Z,99.90
2018-10-16T03:18:36.468Z,99.90
2018-10-16T03:21:05.510Z,99.90
2018-10-16T03:23:34.303Z,99.90
2018-10-16T03:26:03.201Z,99.90
2018-10-16T03:28:32.187Z,99.90
2018-10-16T03:31:01.170Z,99.90
2018-10-16T03:33:29.915Z,99.90
2018-10-16T03:35:58.851Z,99.90
2018-10-16T03:38:28.182Z,99.90
2018-10-16T03:41:01.080Z,99.90
2018-10-16T03:43:36.958Z,99.90
2018-10-16T03:46:06.014Z,99.90
2018-10-16T03:48:35.034Z,99.90
2018-10-16T03:51:04.067Z,99.90
2018-10-16T03:53:32.946Z,99.90
2018-10-16T03:56:01.835Z,99.90
2018-10-16T03:58:32.709Z,99.90
2018-10-16T04:01:03.338Z,99.90
2018-10-16T04:03:33.956Z,99.90
2018-10-16T04:06:02.995Z,99.90
2018-10-16T04:08:32.748Z,99.90
2018-10-16T04:11:01.813Z,99.90
2018-10-16T04:13:30.606Z,99.90
2018-10-16T04:16:00.095Z,99.90
2018-10-16T04:18:28.960Z,99.90
2018-10-16T04:20:59.724Z,99.90
2018-10-16T04:23:28.915Z,99.90
2018-10-16T04:25:57.983Z,99.90
2018-10-16T04:28:27.057Z,99.90
2018-10-16T04:31:00.103Z,99.90
2018-10-16T04:33:35.221Z,99.90
2018-10-16T04:42:39.779Z,99.90
2018-10-16T04:45:10.118Z,99.90
2018-10-16T04:47:39.549Z,99.90
2018-10-16T04:50:08.939Z,99.90
2018-10-16T04:52:37.823Z,99.90
2018-10-16T04:55:07.081Z,99.90
2018-10-16T04:57:36.201Z,99.90
2018-10-16T05:00:05.353Z,99.90
2018-10-16T05:02:34.311Z,99.90
2018-10-16T05:05:03.154Z,99.90
2018-10-16T05:07:32.222Z,99.90
2018-10-16T05:10:01.250Z,99.90
2018-10-16T05:12:30.301Z,99.90
2018-10-16T05:14:59.312Z,99.90
2018-10-16T05:17:29.081Z,99.90
2018-10-16T05:19:58.290Z,99.90
2018-10-16T05:22:28.673Z,99.90
2018-10-16T05:24:57.467Z,99.90
2018-10-16T05:27:26.589Z,99.90
2018-10-16T05:29:55.293Z,99.90
2018-10-16T05:32:24.079Z,99.90
2018-10-16T05:34:52.753Z,99.90
2018-10-16T05:37:21.794Z,99.90
2018-10-16T05:39:50.605Z,99.90
2018-10-16T05:42:19.379Z,99.90
2018-10-16T05:44:48.335Z,99.90
2018-10-16T05:47:17.116Z,99.90
2018-10-16T05:49:46.149Z,99.90
2018-10-16T05:52:14.887Z,99.90
2018-10-16T05:54:43.648Z,99.90
2018-10-16T05:57:12.421Z,99.90
2018-10-16T05:59:41.123Z,99.90
2018-10-16T06:02:10.270Z,99.90
2018-10-16T06:04:39.159Z,99.90
2018-10-16T06:07:08.257Z,99.90
2018-10-16T06:09:38.681Z,99.90
2018-10-16T06:12:07.860Z,99.90
2018-10-16T06:14:36.667Z,99.90
2018-10-16T06:17:05.477Z,99.90
2018-10-16T06:19:35.297Z,99.90
2018-10-16T06:22:04.314Z,99.90
2018-10-16T06:24:33.542Z,99.90
2018-10-16T06:27:02.256Z,99.90
2018-10-16T06:29:31.253Z,99.90
2018-10-16T06:32:00.362Z,99.90
2018-10-16T06:34:29.105Z,99.90
2018-10-16T06:36:57.864Z,99.90
2018-10-16T06:39:26.644Z,99.90
2018-10-16T06:41:55.385Z,99.90
2018-10-16T06:44:24.230Z,99.90
2018-10-16T06:46:53.016Z,99.90
2018-10-16T06:49:21.787Z,99.90
2018-10-16T06:51:50.656Z,99.90
2018-10-16T06:54:19.574Z,99.90
2018-10-16T06:56:48.522Z,99.90
2018-10-16T06:59:17.234Z,99.90
2018-10-16T07:01:46.350Z,99.90
2018-10-16T07:04:15.258Z,99.90
2018-10-16T07:06:44.137Z,99.90
2018-10-16T07:09:12.959Z,99.90
2018-10-16T07:11:41.691Z,99.90
2018-10-16T07:14:11.659Z,99.90
2018-10-16T07:16:40.500Z,99.90
2018-10-16T07:19:10.187Z,99.90
2018-10-16T07:21:39.420Z,99.90
2018-10-16T07:24:08.979Z,99.90
2018-10-16T07:26:37.760Z,99.90
2018-10-16T07:29:07.535Z,99.90
2018-10-16T07:31:43.019Z,99.90
2018-10-16T07:34:12.103Z,99.90
2018-10-16T07:36:40.998Z,99.90
2018-10-16T07:39:11.808Z,99.90
2018-10-16T07:41:41.174Z,99.90
2018-10-16T07:44:10.792Z,99.90
2018-10-16T07:46:39.512Z,99.90
2018-10-16T07:49:09.748Z,99.90
2018-10-16T07:51:38.589Z,99.90
2018-10-16T07:54:07.376Z,99.90
2018-10-16T07:56:36.185Z,99.90
2018-10-16T07:59:05.259Z,99.90
2018-10-16T08:01:34.046Z,99.90
2018-10-16T08:04:02.992Z,99.90
2018-10-16T08:06:31.904Z,99.90
2018-10-16T08:09:00.719Z,99.90
2018-10-16T08:11:29.810Z,99.90
2018-10-16T08:13:58.443Z,99.90
2018-10-16T08:16:27.450Z,99.90
2018-10-16T08:18:56.275Z,99.90
2018-10-16T08:21:25.110Z,99.90
2018-10-16T08:23:53.923Z,99.90
2018-10-16T08:26:22.707Z,99.90
2018-10-16T08:28:51.441Z,99.90
2018-10-16T08:31:20.538Z,99.90
2018-10-16T08:33:49.510Z,99.90
2018-10-16T08:36:18.316Z,99.90
2018-10-16T08:38:54.928Z,99.90
2018-10-16T08:41:28.236Z,99.90
2018-10-16T08:45:11.273Z,99.90
2018-10-16T08:49:57.428Z,99.90
2018-10-16T08:52:26.531Z,99.90
2018-10-16T08:54:55.703Z,99.90
2018-10-16T08:57:26.320Z,99.90
2018-10-16T08:59:55.170Z,99.90
2018-10-16T09:02:24.141Z,99.90
2018-10-16T09:04:53.409Z,99.90
2018-10-16T09:07:23.859Z,99.90
2018-10-16T09:09:54.033Z,99.90
2018-10-16T09:12:28.694Z,99.90
2018-10-16T09:15:00.389Z,99.90
2018-10-16T09:17:29.542Z,99.90
2018-10-16T09:19:58.734Z,99.90
2018-10-16T09:22:28.585Z,99.90
2018-10-16T09:24:57.819Z,99.90
2018-10-16T09:27:26.870Z,99.90
2018-10-16T09:29:55.679Z,99.90
2018-10-16T09:32:24.836Z,99.90
2018-10-16T09:34:54.747Z,99.90
2018-10-16T09:37:23.550Z,99.90
2018-10-16T09:39:52.587Z,99.90
2018-10-16T09:42:22.019Z,99.90
2018-10-16T09:44:51.304Z,99.90
2018-10-16T09:47:20.165Z,99.90
2018-10-16T09:49:49.176Z,99.90
2018-10-16T09:52:18.315Z,99.90
2018-10-16T09:54:47.786Z,99.90
2018-10-16T09:57:16.561Z,99.90
2018-10-16T09:59:45.654Z,99.90
2018-10-16T10:02:14.485Z,99.90
2018-10-16T10:04:43.304Z,99.90
2018-10-16T10:07:12.093Z,99.90
2018-10-16T10:09:40.886Z,99.90
2018-10-16T10:12:09.906Z,99.90
2018-10-16T10:14:38.884Z,99.90
2018-10-16T10:17:07.707Z,99.90
2018-10-16T10:19:36.523Z,99.90
2018-10-16T10:22:05.588Z,99.90
2018-10-16T10:24:34.550Z,99.90
2018-10-16T10:27:03.349Z,99.80
2018-10-16T10:29:32.700Z,99.30
2018-10-16T10:32:01.561Z,99.20
2018-10-16T10:34:30.639Z,99.40
2018-10-16T10:36:59.501Z,99.10
2018-10-16T10:39:28.336Z,98.90
2018-10-16T10:41:57.505Z,98.80
2018-10-16T10:44:26.693Z,99.00
2018-10-16T10:46:55.386Z,99.10
2018-10-16T10:49:25.085Z,99.60
2018-10-16T10:51:54.017Z,99.50
2018-10-16T10:54:22.759Z,99.90
2018-10-16T10:56:51.946Z,99.90
2018-10-16T10:59:22.063Z,99.90
2018-10-16T11:01:51.120Z,99.90
2018-10-16T11:04:19.907Z,99.90
2018-10-16T11:06:48.866Z,99.90
2018-10-16T11:09:17.743Z,99.90
2018-10-16T11:11:53.889Z,99.90
2018-10-16T11:14:23.502Z,99.90
2018-10-16T11:16:52.393Z,99.90
2018-10-16T11:19:22.011Z,99.90
2018-10-16T11:21:51.559Z,99.90
2018-10-16T11:24:20.764Z,99.90
2018-10-16T11:26:49.646Z,99.80
2018-10-16T11:29:18.385Z,99.70
2018-10-16T11:31:47.255Z,99.70
2018-10-16T11:34:16.095Z,99.70
2018-10-16T11:36:44.963Z,99.60
2018-10-16T11:39:14.393Z,99.40
2018-10-16T11:41:44.333Z,99.20
2018-10-16T11:44:13.639Z,99.40
2018-10-16T11:46:42.925Z,99.00
2018-10-16T11:49:11.871Z,99.10
2018-10-16T11:51:41.596Z,99.00
2018-10-16T11:54:10.779Z,98.80
2018-10-16T11:56:40.007Z,98.70
2018-10-16T11:59:09.174Z,97.90
2018-10-16T12:01:39.187Z,97.70
2018-10-16T12:04:08.006Z,97.60
2018-10-16T12:06:36.793Z,97.30
2018-10-16T12:09:08.659Z,97.20
2018-10-16T12:11:37.891Z,96.90
2018-10-16T12:14:07.364Z,96.10
2018-10-16T12:16:46.857Z,95.80
2018-10-16T12:19:19.988Z,95.40
2018-10-16T12:21:49.308Z,92.20
2018-10-16T12:24:19.505Z,85.70
2018-10-16T12:26:48.397Z,77.50
2018-10-16T12:29:23.873Z,70.00
2018-10-16T12:31:52.928Z,59.90
2018-10-16T12:34:21.855Z,56.80
2018-10-16T12:36:50.744Z,53.10
2018-10-16T12:39:19.496Z,49.40
2018-10-16T12:41:48.522Z,46.70
2018-10-16T12:44:17.417Z,45.00
2018-10-16T12:46:46.213Z,43.50
2018-10-16T12:49:15.102Z,41.90
2018-10-16T12:51:44.283Z,40.10
2018-10-16T12:54:13.297Z,39.40
2018-10-16T12:56:42.163Z,39.00
2018-10-16T12:59:11.592Z,39.00
2018-10-16T13:01:40.435Z,36.70
2018-10-16T13:04:10.058Z,37.50
2018-10-16T13:06:38.974Z,36.00
2018-10-16T13:09:10.086Z,36.80
2018-10-16T13:11:39.773Z,37.10
2018-10-16T13:14:08.908Z,37.10
2018-10-16T13:16:39.150Z,34.70
2018-10-16T13:19:08.264Z,35.00
2018-10-16T13:21:37.124Z,35.00
2018-10-16T13:24:06.096Z,34.70
2018-10-16T13:26:34.986Z,34.80
2018-10-16T13:29:03.947Z,33.60
2018-10-16T13:31:32.722Z,33.10
2018-10-16T13:34:01.922Z,33.40
2018-10-16T13:36:31.010Z,33.60
2018-10-16T13:38:59.907Z,35.60
2018-10-16T13:41:28.695Z,37.60
2018-10-16T13:43:57.988Z,36.50
2018-10-16T13:46:27.065Z,36.00
2018-10-16T13:48:55.859Z,35.40
2018-10-16T13:51:25.563Z,35.60
2018-10-16T13:53:55.027Z,35.00
2018-10-16T13:56:32.112Z,34.40
2018-10-16T13:59:08.569Z,33.30
2018-10-16T14:01:43.163Z,34.40
2018-10-16T14:04:16.949Z,35.20
2018-10-16T14:06:50.935Z,34.30
2018-10-16T14:09:23.920Z,33.70
2018-10-16T14:11:53.431Z,33.20
2018-10-16T14:14:22.246Z,34.10
2018-10-16T14:16:51.547Z,34.50
2018-10-16T14:19:21.164Z,35.50
2018-10-16T14:21:50.042Z,35.20
2018-10-16T14:24:19.270Z,37.00
2018-10-16T14:26:49.673Z,38.20
2018-10-16T14:29:21.714Z,37.50
2018-10-16T14:31:50.498Z,38.00
2018-10-16T14:34:19.411Z,35.60
2018-10-16T14:36:49.696Z,36.80
2018-10-16T14:39:18.642Z,38.60
2018-10-16T14:41:49.344Z,38.30
2018-10-16T14:44:18.428Z,40.40
2018-10-16T14:46:47.400Z,42.60
2018-10-16T14:49:16.231Z,43.70
2018-10-16T14:51:45.259Z,44.50
2018-10-16T14:54:14.813Z,45.90
2018-10-16T14:56:43.574Z,46.80
2018-10-16T14:59:13.237Z,48.10
2018-10-16T15:01:42.895Z,49.30
2018-10-16T15:04:12.217Z,50.60
2018-10-16T15:06:41.626Z,50.90
2018-10-16T15:09:10.979Z,51.30
2018-10-16T15:11:41.817Z,52.00
2018-10-16T15:14:11.659Z,52.40
2018-10-16T15:16:41.216Z,53.40
2018-10-16T15:19:10.835Z,53.90
2018-10-16T15:21:41.674Z,54.10
2018-10-16T15:24:10.557Z,54.50
2018-10-16T15:26:39.324Z,54.70
2018-10-16T15:29:11.051Z,55.10
2018-10-16T15:31:39.875Z,55.50
2018-10-16T15:34:10.911Z,55.90
2018-10-16T15:36:40.105Z,55.80
2018-10-16T15:39:11.321Z,55.80
2018-10-16T15:41:40.478Z,56.20
2018-10-16T15:44:09.813Z,56.30
2018-10-16T15:46:39.589Z,56.50
2018-10-16T15:49:09.092Z,56.80
2018-10-16T15:51:37.856Z,57.20
2018-10-16T15:54:07.014Z,57.80
2018-10-16T15:56:35.916Z,58.60
2018-10-16T15:59:04.942Z,59.20
2018-10-16T16:01:33.742Z,59.00
2018-10-16T16:04:02.665Z,59.90
2018-10-16T16:06:31.513Z,60.50
2018-10-16T16:09:02.009Z,60.70
2018-10-16T16:11:37.512Z,61.20
2018-10-16T16:14:06.527Z,61.60
2018-10-16T16:16:35.281Z,61.70
2018-10-16T16:19:05.341Z,61.80
2018-10-16T16:21:34.619Z,62.70
2018-10-16T16:24:03.862Z,63.50
2018-10-16T16:26:35.071Z,64.20
2018-10-16T16:29:04.043Z,65.00
2018-10-16T16:31:33.787Z,65.70
2018-10-16T16:34:04.381Z,65.70
2018-10-16T16:36:33.160Z,66.00
2018-10-16T16:39:02.812Z,66.30
2018-10-16T16:41:31.899Z,66.20
2018-10-16T16:44:00.978Z,66.90
2018-10-16T16:46:30.189Z,67.80
2018-10-16T16:48:59.411Z,68.60
2018-10-16T16:51:28.237Z,69.20
2018-10-16T16:53:57.071Z,69.80
2018-10-16T16:56:25.934Z,70.30
2018-10-16T16:58:58.221Z,70.70
2018-10-16T17:01:30.567Z,71.10
2018-10-16T17:04:01.856Z,71.60
2018-10-16T17:06:30.693Z,71.90
2018-10-16T17:08:59.512Z,72.50
2018-10-16T17:11:28.382Z,72.90
2018-10-16T17:13:57.291Z,73.40
2018-10-16T17:16:26.320Z,73.90
2018-10-16T17:18:56.143Z,74.40
2018-10-16T17:21:25.071Z,74.80
2018-10-16T17:23:53.818Z,75.30
2018-10-16T17:26:23.170Z,76.10
2018-10-16T17:28:53.108Z,76.80
2018-10-16T17:34:11.461Z,77.30
2018-10-16T17:36:47.478Z,77.70
2018-10-16T17:39:24.523Z,77.80
2018-10-16T17:41:58.410Z,78.30
2018-10-16T17:44:33.188Z,78.90
2018-10-16T17:47:08.090Z,79.50
2018-10-16T17:49:44.956Z,80.10
2018-10-16T17:52:21.623Z,80.50
2018-10-16T17:54:55.365Z,80.90
2018-10-16T17:57:28.972Z,80.90
2018-10-16T18:00:01.028Z,81.10
2018-10-16T18:02:34.913Z,81.50
2018-10-16T18:05:10.036Z,81.70
2018-10-16T18:07:45.110Z,82.00
2018-10-16T18:10:22.678Z,82.00
2018-10-16T18:12:55.370Z,82.00
2018-10-16T18:15:29.294Z,82.50
2018-10-16T18:18:02.350Z,82.90
2018-10-16T18:20:36.304Z,83.20
2018-10-16T18:23:12.138Z,82.80
2018-10-16T18:25:45.541Z,82.80
2018-10-16T18:28:18.421Z,83.10
2018-10-16T18:30:56.098Z,83.40
2018-10-16T18:33:30.690Z,83.20
2018-10-16T18:36:04.990Z,83.40
2018-10-16T18:38:38.721Z,83.70
2018-10-16T18:41:12.217Z,83.20
2018-10-16T18:43:45.303Z,82.80
2018-10-16T18:46:17.695Z,83.10
2018-10-16T18:48:52.752Z,82.20
2018-10-16T18:51:28.200Z,81.80
2018-10-16T18:56:40.139Z,81.20
2018-10-16T18:59:15.232Z,81.40
2018-10-16T19:01:58.247Z,81.40
2018-10-16T19:04:31.836Z,81.30
2018-10-16T19:07:06.610Z,81.40
2018-10-16T19:09:40.690Z,81.80
2018-10-16T19:12:20.055Z,81.90
2018-10-16T19:14:52.866Z,82.00
2018-10-16T19:17:26.823Z,81.90
2018-10-16T19:20:03.279Z,82.30
2018-10-16T19:22:36.802Z,82.40
2018-10-16T19:25:11.992Z,82.70
2018-10-16T19:27:44.948Z,83.10
2018-10-16T19:30:18.397Z,83.30
2018-10-16T19:33:00.930Z,83.60
2018-10-16T19:35:29.877Z,84.00
2018-10-16T19:37:59.587Z,84.40
2018-10-16T19:40:28.332Z,84.40
2018-10-16T19:42:57.024Z,84.90
2018-10-16T19:45:25.759Z,85.10
2018-10-16T19:47:54.614Z,85.50
2018-10-16T19:50:23.343Z,85.70
2018-10-16T19:52:52.146Z,85.90
2018-10-16T19:55:20.882Z,86.10
2018-10-16T19:57:49.665Z,86.50
2018-10-16T20:00:18.700Z,86.90
2018-10-16T20:02:47.366Z,87.00
2018-10-16T20:05:16.159Z,87.40
2018-10-16T20:07:44.917Z,87.80
2018-10-16T20:10:14.085Z,88.20
2018-10-16T20:12:43.085Z,88.30
2018-10-16T20:15:13.027Z,88.50
2018-10-16T20:17:42.180Z,89.00
2018-10-16T20:20:12.440Z,89.50
2018-10-16T20:22:41.730Z,89.70
2018-10-16T20:25:11.166Z,90.00
2018-10-16T20:27:40.106Z,90.00
2018-10-16T20:30:09.898Z,90.10
2018-10-16T20:32:38.771Z,90.20
2018-10-16T20:35:07.563Z,90.30
2018-10-16T20:37:36.501Z,90.50
2018-10-16T20:40:09.724Z,90.60
2018-10-16T20:42:42.453Z,90.70
2018-10-16T20:45:15.734Z,90.70
2018-10-16T20:47:47.225Z,90.80
2018-10-16T20:50:18.447Z,90.80
2018-10-16T20:52:49.009Z,90.90
2018-10-16T20:55:18.309Z,91.00
2018-10-16T20:57:47.248Z,91.00
2018-10-16T21:00:16.160Z,91.10
2018-10-16T21:02:45.125Z,91.20
2018-10-16T21:05:14.219Z,91.30
2018-10-16T21:07:43.134Z,91.40
2018-10-16T21:10:12.246Z,91.40
2018-10-16T21:12:41.546Z,91.50
2018-10-16T21:15:11.036Z,91.50
2018-10-16T21:17:40.229Z,91.50
2018-10-16T21:20:09.924Z,91.30
2018-10-16T21:22:39.118Z,91.20
2018-10-16T21:25:09.353Z,91.20
2018-10-16T21:27:38.208Z,91.20
2018-10-16T21:30:08.812Z,91.20
2018-10-16T21:32:37.785Z,91.20
2018-10-16T21:35:09.672Z,91.60
2018-10-16T21:37:42.731Z,91.30
2018-10-16T21:40:12.369Z,91.20
2018-10-16T21:42:41.182Z,91.20
2018-10-16T21:45:10.328Z,91.20
2018-10-16T21:47:39.229Z,91.20
2018-10-16T21:50:08.091Z,91.20
2018-10-16T21:52:37.052Z,91.20
2018-10-16T21:55:06.527Z,91.20
2018-10-16T21:57:42.758Z,91.20
2018-10-16T22:00:21.698Z,91.20
2018-10-16T22:02:51.195Z,91.30
2018-10-16T22:05:26.875Z,91.40
2018-10-16T22:08:01.519Z,91.50
2018-10-16T22:10:30.413Z,91.70
2018-10-16T22:12:59.442Z,91.90
2018-10-16T22:15:28.283Z,92.00
2018-10-16T22:17:57.200Z,92.10
2018-10-16T22:20:26.036Z,92.20
2018-10-16T22:22:54.920Z,92.20
2018-10-16T22:25:23.702Z,92.40
2018-10-16T22:27:53.248Z,92.50
2018-10-16T22:30:26.169Z,92.60
2018-10-16T22:32:54.923Z,92.70
2018-10-16T22:35:23.741Z,92.70
2018-10-16T22:37:52.640Z,92.90
2018-10-16T22:40:21.497Z,92.90
2018-10-16T22:42:50.287Z,93.10
2018-10-16T22:45:19.176Z,93.20
2018-10-16T22:47:47.934Z,93.30
2018-10-16T22:50:17.642Z,93.70
2018-10-16T22:52:46.420Z,93.50
2018-10-16T22:55:15.402Z,93.70
2018-10-16T22:57:45.193Z,93.70
2018-10-16T23:00:19.714Z,93.80
2018-10-16T23:02:49.118Z,93.80
2018-10-16T23:05:17.992Z,93.90
2018-10-16T23:07:47.946Z,94.00
2018-10-16T23:10:16.860Z,94.00
2018-10-16T23:12:50.724Z,94.00
2018-10-16T23:15:19.867Z,94.10
2018-10-16T23:17:48.751Z,94.10
2018-10-16T23:20:17.703Z,94.20
2018-10-16T23:22:46.465Z,94.10
2018-10-16T23:25:15.264Z,94.20
2018-10-16T23:27:44.067Z,94.30
2018-10-16T23:30:13.490Z,94.30
2018-10-16T23:32:42.426Z,94.40
2018-10-16T23:35:11.353Z,94.40
2018-10-16T23:37:40.164Z,94.50
2018-10-16T23:40:09.139Z,94.60
2018-10-16T23:42:37.944Z,94.50
2018-10-16T23:45:07.022Z,94.70
2018-10-16T23:47:35.761Z,94.90
2018-10-16T23:50:04.829Z,94.90
2018-10-16T23:52:34.108Z,95.00
2018-10-16T23:55:03.015Z,95.00
2018-10-16T23:57:31.903Z,95.00
